createdAt,value
2023-02-22T00:01:23.149Z,6.40
2023-02-22T00:04:03.616Z,6.30
2023-02-22T00:06:41.482Z,6.30
2023-02-22T00:09:29.302Z,6.30
2023-02-22T00:15:04.480Z,6.20
2023-02-22T00:17:39.959Z,6.10
2023-02-22T00:20:20.469Z,6.10
2023-02-22T00:22:58.049Z,6.00
2023-02-22T00:25:33.913Z,6.00
2023-02-22T00:28:12.299Z,5.90
2023-02-22T00:31:14.410Z,5.90
2023-02-22T00:33:51.443Z,5.90
2023-02-22T00:36:27.075Z,5.80
2023-02-22T00:39:08.082Z,5.70
2023-02-22T00:41:45.787Z,5.70
2023-02-22T00:44:23.989Z,5.70
2023-02-22T00:47:14.198Z,5.60
2023-02-22T00:49:51.428Z,5.60
2023-02-22T00:52:28.483Z,5.50
2023-02-22T00:55:03.621Z,5.50
2023-02-22T00:57:39.352Z,5.40
2023-02-22T01:00:20.960Z,5.30
2023-02-22T01:03:02.450Z,5.30
2023-02-22T01:05:39.850Z,5.20
2023-02-22T01:08:16.566Z,5.20
2023-02-22T01:10:53.634Z,5.20
2023-02-22T01:13:32.784Z,5.20
2023-02-22T01:16:13.052Z,5.20
2023-02-22T01:18:53.616Z,5.20
2023-02-22T01:24:06.337Z,5.20
2023-02-22T01:26:42.403Z,5.10
2023-02-22T01:29:19.633Z,5.10
2023-02-22T01:31:57.190Z,5.10
2023-02-22T01:34:36.594Z,5.10
2023-02-22T01:37:14.568Z,5.00
2023-02-22T01:39:53.117Z,5.00
2023-02-22T01:42:30.409Z,5.00
2023-02-22T01:45:35.399Z,5.00
2023-02-22T01:48:09.447Z,5.00
2023-02-22T01:50:53.398Z,5.00
2023-02-22T01:53:34.877Z,4.90
2023-02-22T01:56:22.341Z,4.90
2023-02-22T01:59:03.535Z,4.90
2023-02-22T02:01:44.011Z,4.90
2023-02-22T02:04:26.644Z,4.80
2023-02-22T02:07:09.560Z,4.80
2023-02-22T02:09:55.144Z,4.70
2023-02-22T02:12:31.124Z,4.70
2023-02-22T02:15:25.561Z,4.60
2023-02-22T02:18:06.350Z,4.60
2023-02-22T02:20:47.503Z,4.50
2023-02-22T02:23:42.209Z,4.50
2023-02-22T02:26:47.798Z,4.40
2023-02-22T02:30:07.110Z,4.50
2023-02-22T02:32:58.272Z,4.40
2023-02-22T02:35:38.797Z,4.40
2023-02-22T02:38:20.158Z,4.40
2023-02-22T02:41:02.287Z,4.40
2023-02-22T02:43:42.794Z,4.40
2023-02-22T02:46:19.016Z,4.40
2023-02-22T02:48:59.433Z,4.30
2023-02-22T02:51:46.077Z,4.40
2023-02-22T02:54:22.875Z,4.40
2023-02-22T02:57:05.457Z,4.40
2023-02-22T02:59:40.592Z,4.40
2023-02-22T03:02:26.796Z,4.40
2023-02-22T03:05:10.567Z,4.40
2023-02-22T03:07:59.398Z,4.40
2023-02-22T03:10:44.684Z,4.40
2023-02-22T03:13:31.139Z,4.40
2023-02-22T03:16:10.194Z,4.40
2023-02-22T03:18:51.209Z,4.40
2023-02-22T03:24:44.682Z,4.40
2023-02-22T03:27:25.028Z,4.40
2023-02-22T03:30:04.174Z,4.40
2023-02-22T03:32:42.013Z,4.40
2023-02-22T03:35:23.622Z,4.50
2023-02-22T03:37:58.785Z,4.50
2023-02-22T03:40:39.244Z,4.30
2023-02-22T03:43:17.171Z,4.30
2023-02-22T03:45:53.460Z,4.30
2023-02-22T03:51:25.730Z,4.30
2023-02-22T03:54:09.319Z,4.30
2023-02-22T03:56:55.415Z,4.30
2023-02-22T03:59:37.246Z,4.30
2023-02-22T04:02:14.552Z,4.30
2023-02-22T04:04:54.944Z,4.30
2023-02-22T04:07:32.195Z,4.30
2023-02-22T04:15:48.323Z,4.20
2023-02-22T04:18:32.216Z,4.10
2023-02-22T04:21:09.518Z,4.10
2023-02-22T04:23:51.507Z,4.10
2023-02-22T04:26:30.278Z,4.10
2023-02-22T04:29:11.252Z,4.10
2023-02-22T04:31:50.130Z,4.10
2023-02-22T04:34:33.255Z,4.00
2023-02-22T04:37:11.214Z,4.00
2023-02-22T04:39:54.330Z,4.00
2023-02-22T04:42:33.728Z,4.00
2023-02-22T04:45:07.911Z,3.90
2023-02-22T04:47:49.388Z,4.00
2023-02-22T04:50:31.535Z,3.90
2023-02-22T04:53:09.595Z,3.80
2023-02-22T04:55:47.390Z,3.80
2023-02-22T04:58:22.043Z,3.80
2023-02-22T05:01:02.408Z,3.70
2023-02-22T05:03:39.167Z,3.70
2023-02-22T05:06:23.344Z,3.70
2023-02-22T05:09:03.883Z,3.70
2023-02-22T05:11:44.134Z,3.70
2023-02-22T05:14:20.957Z,3.70
2023-02-22T05:16:59.229Z,3.70
2023-02-22T05:19:38.718Z,3.80
2023-02-22T05:22:17.943Z,3.70
2023-02-22T05:24:57.101Z,3.70
2023-02-22T05:27:31.387Z,3.70
2023-02-22T05:30:09.718Z,3.80
2023-02-22T05:32:47.797Z,3.80
2023-02-22T05:35:30.470Z,3.80
2023-02-22T05:38:14.135Z,3.80
2023-02-22T05:40:49.451Z,3.90
2023-02-22T05:46:16.242Z,3.70
2023-02-22T05:51:48.125Z,3.80
2023-02-22T05:54:28.683Z,3.70
2023-02-22T05:57:04.586Z,3.80
2023-02-22T05:59:43.462Z,3.80
2023-02-22T06:02:19.662Z,3.80
2023-02-22T06:05:00.918Z,3.80
2023-02-22T06:07:41.608Z,3.80
2023-02-22T06:10:20.385Z,3.90
2023-02-22T06:12:59.705Z,3.90
2023-02-22T06:15:35.476Z,3.90
2023-02-22T06:18:11.782Z,3.90
2023-02-22T06:20:47.511Z,3.90
2023-02-22T06:23:23.308Z,4.00
2023-02-22T06:26:08.071Z,4.00
2023-02-22T06:28:42.678Z,4.00
2023-02-22T06:31:25.916Z,4.10
2023-02-22T06:34:03.184Z,4.20
2023-02-22T06:36:39.189Z,4.20
2023-02-22T06:39:18.284Z,4.20
2023-02-22T06:41:58.189Z,4.20
2023-02-22T06:44:34.038Z,4.30
2023-02-22T06:47:14.255Z,4.50
2023-02-22T06:49:51.652Z,4.40
2023-02-22T06:52:26.639Z,4.50
2023-02-22T06:55:02.870Z,4.50
2023-02-22T06:57:45.522Z,4.60
2023-02-22T07:00:25.437Z,4.60
2023-02-22T07:03:05.621Z,4.60
2023-02-22T07:05:44.382Z,4.70
2023-02-22T07:08:34.352Z,4.80
2023-02-22T07:11:14.029Z,4.80
2023-02-22T07:13:53.607Z,5.40
2023-02-22T07:16:31.693Z,5.60
2023-02-22T07:22:00.866Z,5.60
2023-02-22T07:24:36.063Z,5.70
2023-02-22T07:27:26.809Z,5.70
2023-02-22T07:30:34.609Z,5.70
2023-02-22T07:33:32.382Z,5.70
2023-02-22T07:36:16.267Z,5.70
2023-02-22T07:38:52.095Z,5.80
2023-02-22T07:41:31.594Z,5.80
2023-02-22T07:44:17.477Z,5.80
2023-02-22T07:47:09.160Z,5.80
2023-02-22T07:50:05.520Z,5.90
2023-02-22T07:52:49.609Z,5.90
2023-02-22T07:55:43.251Z,5.90
2023-02-22T08:01:19.657Z,6.00
2023-02-22T08:04:01.684Z,6.10
2023-02-22T08:06:50.123Z,6.20
2023-02-22T08:09:21.649Z,6.50
2023-02-22T08:12:04.830Z,6.60
2023-02-22T08:14:46.084Z,6.70
2023-02-22T08:17:38.195Z,6.70
2023-02-22T08:20:13.848Z,6.70
2023-02-22T08:26:00.252Z,6.80
2023-02-22T08:28:43.098Z,6.90
2023-02-22T08:34:14.764Z,7.00
2023-02-22T08:40:31.003Z,7.10
2023-02-22T08:43:14.631Z,7.20
2023-02-22T08:46:35.285Z,7.30
2023-02-22T08:49:18.656Z,7.40
2023-02-22T08:52:09.961Z,7.50
2023-02-22T08:55:07.916Z,7.80
2023-02-22T08:57:58.347Z,8.10
2023-02-22T09:01:05.056Z,8.50
2023-02-22T09:03:41.572Z,8.70
2023-02-22T09:09:39.748Z,9.20
2023-02-22T09:12:18.791Z,9.30
2023-02-22T09:15:17.459Z,9.40
2023-02-22T09:18:22.881Z,9.50
2023-02-22T09:21:05.610Z,9.60
2023-02-22T09:24:11.425Z,9.70
2023-02-22T09:27:05.262Z,9.70
2023-02-22T09:34:05.679Z,9.70
2023-02-22T09:44:01.272Z,9.60
2023-02-22T09:46:38.367Z,9.70
2023-02-22T09:55:26.527Z,9.90
2023-02-22T09:58:17.838Z,9.80
2023-02-22T10:45:44.882Z,9.80
2023-02-22T10:48:35.017Z,9.80
2023-02-22T10:51:34.681Z,9.90
2023-02-22T10:54:41.470Z,9.80
2023-02-22T11:00:41.396Z,9.90
2023-02-22T11:03:30.946Z,10.10
2023-02-22T11:06:15.755Z,10.10
2023-02-22T11:09:16.352Z,10.20
2023-02-22T11:12:02.185Z,10.20
2023-02-22T11:14:57.618Z,10.30
2023-02-22T11:17:58.351Z,10.40
2023-02-22T11:20:36.627Z,10.40
2023-02-22T11:23:34.641Z,10.30
2023-02-22T11:26:30.743Z,10.30
2023-02-22T11:32:29.291Z,10.30
2023-02-22T11:36:22.723Z,10.30
2023-02-22T11:39:28.392Z,10.40
2023-02-22T11:42:25.979Z,10.40
2023-02-22T11:48:38.771Z,10.50
2023-02-22T11:58:13.864Z,10.40
2023-02-22T12:01:26.808Z,10.40
2023-02-22T12:07:56.915Z,10.20
2023-02-22T12:10:42.025Z,10.20
2023-02-22T12:13:58.547Z,10.20
2023-02-22T12:26:46.210Z,10.20
2023-02-22T12:46:38.664Z,10.40
2023-02-22T12:52:45.050Z,10.50
2023-02-22T13:14:59.163Z,10.30
2023-02-22T13:18:07.208Z,10.30
2023-02-22T13:27:10.478Z,10.30
2023-02-22T13:35:24.308Z,10.30
2023-02-22T13:41:35.398Z,10.40
2023-02-22T13:48:22.724Z,10.40
2023-02-22T13:51:59.187Z,10.40
2023-02-22T13:58:46.686Z,10.40
2023-02-22T14:02:14.975Z,10.40
2023-02-22T14:05:07.708Z,10.30
2023-02-22T14:11:26.728Z,10.20
2023-02-22T14:14:42.149Z,10.10
2023-02-22T14:17:21.954Z,10.00
2023-02-22T14:20:44.478Z,9.90
2023-02-22T14:23:38.761Z,9.90
2023-02-22T14:26:28.144Z,9.80
2023-02-22T14:32:36.146Z,9.70
2023-02-22T14:35:27.554Z,9.70
2023-02-22T14:38:20.356Z,9.70
2023-02-22T14:40:58.414Z,9.70
2023-02-22T14:43:48.334Z,9.60
2023-02-22T14:46:43.594Z,9.60
2023-02-22T14:49:29.494Z,9.60
2023-02-22T14:52:11.726Z,9.60
2023-02-22T14:54:59.349Z,9.50
2023-02-22T14:57:47.616Z,9.50
2023-02-22T15:00:33.963Z,9.50
2023-02-22T15:03:29.835Z,9.50
2023-02-22T15:06:21.115Z,9.40
2023-02-22T15:09:19.981Z,9.40
2023-02-22T15:12:00.825Z,9.40
2023-02-22T15:14:38.251Z,9.30
2023-02-22T15:20:50.650Z,9.30
2023-02-22T15:30:04.288Z,9.30
2023-02-22T15:33:04.728Z,9.40
2023-02-22T15:38:44.753Z,9.30
2023-02-22T15:45:16.896Z,9.20
2023-02-22T15:51:21.007Z,9.10
2023-02-22T15:53:56.988Z,9.00
2023-02-22T18:00:38.291Z,7.80
2023-02-22T18:03:24.485Z,7.80
2023-02-22T18:06:23.323Z,7.90
2023-02-22T18:14:58.165Z,7.80
2023-02-22T18:17:46.081Z,7.70
2023-02-22T18:20:38.753Z,7.70
2023-02-22T18:23:29.318Z,7.50
2023-02-22T18:29:37.324Z,7.40
2023-02-22T18:32:19.181Z,7.20
2023-02-22T18:34:58.395Z,7.20
2023-02-22T18:37:36.080Z,7.00
2023-02-22T18:40:21.096Z,7.00
2023-02-22T18:43:03.636Z,7.00
2023-02-22T18:45:42.752Z,7.00
2023-02-22T18:48:20.743Z,6.90
2023-02-22T18:51:00.457Z,6.90
2023-02-22T18:53:39.296Z,6.80
2023-02-22T18:56:31.976Z,6.70
2023-02-22T18:59:20.208Z,6.60
2023-02-22T19:02:02.586Z,6.60
2023-02-22T19:04:41.310Z,6.50
2023-02-22T19:07:21.581Z,6.40
2023-02-22T19:09:58.077Z,6.40
2023-02-22T19:15:35.061Z,6.20
2023-02-22T19:18:14.711Z,6.10
2023-02-22T19:20:57.654Z,6.00
2023-02-22T19:23:47.390Z,5.90
2023-02-22T19:26:28.320Z,5.80
2023-02-22T19:29:14.038Z,5.80
2023-02-22T19:31:54.101Z,5.70
2023-02-22T19:34:36.999Z,5.60
2023-02-22T19:37:28.405Z,5.60
2023-02-22T19:40:10.335Z,5.60
2023-02-22T19:42:49.455Z,5.50
2023-02-22T19:45:26.854Z,5.40
2023-02-22T19:48:10.518Z,5.40
2023-02-22T19:51:00.570Z,5.30
2023-02-22T19:53:39.735Z,5.30
2023-02-22T19:56:20.139Z,5.20
2023-02-22T19:59:08.142Z,5.10
2023-02-22T20:01:48.522Z,5.00
2023-02-22T20:04:33.479Z,5.00
2023-02-22T20:07:12.730Z,4.90
2023-02-22T20:09:55.272Z,4.90
2023-02-22T20:12:36.440Z,4.80
2023-02-22T20:15:14.733Z,4.80
2023-02-22T20:17:57.723Z,4.70
2023-02-22T20:23:31.750Z,4.60
2023-02-22T20:26:14.743Z,4.60
2023-02-22T20:31:54.406Z,4.50
2023-02-22T20:34:38.426Z,4.50
2023-02-22T20:37:12.901Z,4.40
2023-02-22T20:40:07.776Z,4.40
2023-02-22T20:42:46.388Z,4.30
2023-02-22T20:48:34.925Z,4.30
2023-02-22T20:51:21.284Z,4.30
2023-02-22T20:54:04.616Z,4.20
2023-02-22T20:56:43.851Z,4.20
2023-02-22T20:59:22.094Z,4.20
2023-02-22T21:02:00.719Z,4.20
2023-02-22T21:07:58.959Z,4.10
2023-02-22T21:10:42.851Z,4.10
2023-02-22T21:13:20.379Z,4.00
2023-02-22T21:15:57.521Z,4.00
2023-02-22T21:18:34.657Z,4.00
2023-02-22T21:21:17.913Z,3.90
2023-02-22T21:23:58.577Z,3.90
2023-02-22T21:26:37.869Z,3.80
2023-02-22T21:29:13.576Z,3.80
2023-02-22T21:31:48.971Z,3.80
2023-02-22T21:34:27.019Z,3.80
2023-02-22T21:37:08.411Z,3.70
2023-02-22T21:39:48.822Z,3.70
2023-02-22T21:42:23.922Z,3.60
2023-02-22T21:45:09.623Z,3.60
2023-02-22T21:47:46.777Z,3.60
2023-02-22T21:50:25.808Z,3.60
2023-02-22T21:53:01.374Z,3.60
2023-02-22T21:55:41.109Z,3.60
2023-02-22T21:58:15.761Z,3.60
2023-02-22T22:01:00.220Z,3.60
2023-02-22T22:03:38.829Z,3.60
2023-02-22T22:06:13.985Z,3.60
2023-02-22T22:08:53.956Z,3.60
2023-02-22T22:11:30.926Z,3.50
2023-02-22T22:14:12.958Z,3.50
2023-02-22T22:16:59.266Z,3.50
2023-02-22T22:19:41.422Z,3.50
2023-02-22T22:22:18.233Z,3.50
2023-02-22T22:24:55.264Z,3.50
2023-02-22T22:27:30.915Z,3.50
2023-02-22T22:30:11.244Z,3.40
2023-02-22T22:32:48.077Z,3.50
2023-02-22T22:35:33.713Z,3.50
2023-02-22T22:38:10.411Z,3.50
2023-02-22T22:40:56.373Z,3.40
2023-02-22T22:43:33.815Z,3.30
2023-02-22T22:46:12.769Z,3.30
2023-02-22T22:48:48.540Z,3.30
2023-02-22T22:51:33.764Z,3.30
2023-02-22T22:54:09.892Z,3.30
2023-02-22T22:56:43.829Z,3.20
2023-02-22T22:59:20.227Z,3.20
2023-02-22T23:01:56.915Z,3.10
2023-02-22T23:07:38.093Z,3.00
2023-02-22T23:10:14.706Z,3.00
2023-02-22T23:12:49.665Z,3.00
2023-02-22T23:15:24.839Z,2.90
2023-02-22T23:20:56.509Z,2.80
2023-02-22T23:26:38.042Z,2.80
2023-02-22T23:29:17.809Z,2.80
2023-02-22T23:35:08.727Z,2.70
2023-02-22T23:50:00.041Z,2.50
2023-02-22T23:52:34.515Z,2.50
2023-02-22T23:58:06.389Z,2.40
